Search for airport 
image banner adimage banner adimage banner ad
image banner ad

O62 - Carmel Valley

Located in Enterprise, United States

ICAO - O62, IATA - O62

Data provided by Airmate  

General information

Coordinates: N45°43'27" W117°4'39"
Elevation is 4007 feet MSL.
 
View others Airports in California

Operational data

Special qualification required
Current time UTC:
Current local time:
Weather at : KLWS - Lewiston-Nez Perce County ( 72 km )
METAR: KLWS 221356Z 08003KT 10SM CLR 22/11 A2981 RMK AO2 SLP079 T02170111
TAF: KLWS 221140Z 2212/2312 09004KT P6SM SCT250 FM221800 32010KT P6SM SCT200 FM222200 30012G20KT P6SM SCT150 BKN200 FM230300 24008KT P6SM SCT120 BKN200 FM230800 14004KT P6SM FEW120 SCT200
View NOTAMs / SUP AIP / TFR affecting this airport [VIEW]
Communications frequencies: [VIEW]

Runways:

RWY identifierQFULength (ft)Width (ft)SurfaceLDA (ft)
04185030GRASS
22185030GRASS

Airport contact information

Address: Enterprise United States

Satellite view of O62